RIPO2: Cimarron River Near Ripley, OK

                                SHEF ID:       RIPO2     Cimarron River near Ripley, OK
STATION TYPE:
Regulating: Stage = 20.00, Flow = 33370

PRECIP ELEVATION STAGE RIV-FLOW AIR-TEMP WIND-DIRWIND-SPEED REL-HUMID VOLTAGE BAT-LOAD
in ft ft cfs F deg mph % volt volt
Ccp-Rev Ccp-Rev Ccp-Rev Ccp-Rev Ccp-Rev Ccp-Rev Ccp-Rev Ccp-Rev Ccp-Rev Ccp-Rev
(America/Chicago)
03/22 00:00 0.00 ---- 7.35 382 169.34 ---- ---- ---- ---- 12.62
03/22 01:00 0.00 ---- 7.36 387 166.64 ---- ---- ---- ---- 12.60
03/22 02:00 0.00 ---- 7.36 387 164.12 ---- ---- ---- ---- 12.58
03/22 03:00 0.00 ---- 7.36 387 161.06 ---- ---- ---- ---- 12.58
03/22 04:00 0.00 ---- 7.35 382 158.54 ---- ---- ---- ---- 12.57
03/22 05:00 0.00 ---- 7.33 374 157.64 ---- ---- ---- ---- 12.54
03/22 06:00 0.00 ---- 7.33 374 156.56 ---- ---- ---- ---- 12.54
03/22 07:00 0.00 ---- 7.31 365 155.48 ---- ---- ---- ---- 12.53
03/22 08:00 0.00 ---- 7.28 353 155.66 ---- ---- ---- ---- 12.51
03/22 09:00 0.00 ---- 7.29 357 161.78 ---- ---- ---- ---- 12.53
03/22 10:00 0.00 ---- 7.31 365 174.38 ---- ---- ---- ---- 13.24
03/22 11:00 0.00 ---- 7.33 374 181.22 ---- ---- ---- ---- 13.39
03/22 12:00 0.00 ---- 7.36 387 185.00 ---- ---- ---- ---- 13.35
03/22 13:00 0.00 ---- 7.36 387 182.30 ---- ---- ---- ---- 13.29
03/22 14:00 0.00 ---- 7.34 378 177.98 ---- ---- ---- ---- 13.23
03/22 15:00 0.00 ---- 7.28 353 176.00 ---- ---- ---- ---- 13.24
03/22 16:00 0.00 ---- 7.27 349 173.30 ---- ---- ---- ---- 13.26
03/22 17:00 0.00 ---- 7.27 349 168.44 ---- ---- ---- ---- 13.26
03/22 18:00 0.00 ---- 7.28 353 161.78 ---- ---- ---- ---- 13.28
03/22 19:00 0.00 ---- 7.29 357 155.66 ---- ---- ---- ---- 13.30
03/22 20:00 0.00 ---- 7.28 353 151.34 ---- ---- ---- ---- 13.36
03/22 21:00 0.00 ---- 7.26 345 148.28 ---- ---- ---- ---- 13.07
03/22 22:00 0.00 ---- 7.29 357 144.86 ---- ---- ---- ---- 12.90
03/22 23:00 0.00 ---- 7.27 349 142.88 ---- ---- ---- ---- 12.77
Data processed at Mon 23Mar2026 04:02 GMT

NOTICE: If you are parsing this page

Please convert to using our Data API. Starting early 2026 we will be migrating to: https://water.usace.army.mil with modern pages rendered in JavaScript. When this migration completes you will no longer be able to scrape this page! CWMSDataAPI (CDA)

Timeseries IDs (TSIDs)

TSIDs used from left to right in the data table
RIPL.Precip-Inc.Total.1Hour.1Hour.Ccp-Rev
RIPL.Stage.Inst.1Hour.0.Ccp-Rev
RIPL.Flow.Inst.1Hour.0.Ccp-Rev
RIPL.Temp-Air.Inst.1Hour.0.Ccp-Rev
RIPL.Dir-Wind.Inst.1Hour.0.Ccp-Rev
RIPL.Speed-Wind.Inst.1Hour.0.Ccp-Rev
RIPL.%-Humidity.Inst.1Hour.0.Ccp-Rev
RIPL.Volt-Battery.Inst.1Hour.0.Ccp-Rev
RIPL.Volt-Battery Load.Inst.1Hour.0.Ccp-Rev

                            

All information presented herein is the property of the government of the United States of America and may be revised or deleted at any time without prior notice. Dissemination of this information without the expressed written consent of the Public Affairs Office, Tulsa District U.S. Army Corps of Engineers is strictly prohibited. These data are gathered electronically and, as presented, have NOT undergone any form of quality control. These data are NOT guaranteed to be valid or correct.